Time;durP1;ratioP1;P1;durP2;ratioP2;P2;SDS_P1;SDS_P2;PMS_P1;PMS_P2;Temp;Humidity;BMP_temperature;BMP_pressure;BME280_temperature;BME280_humidity;BME280_pressure;Samples;Min_cycle;Max_cycle;Signal;HPM_P1;HPM_P2
2023/10/07 00:01:24;;;;;;;24.38;9.30;;;10.20;99.90;;;;;;5033190;28;20037;-83
2023/10/07 00:03:56;;;;;;;17.65;8.18;;;10.20;99.90;;;;;;5026111;28;20029;-83
2023/10/07 00:06:27;;;;;;;17.88;8.48;;;10.10;99.90;;;;;;5049509;28;20025;-84
2023/10/07 00:08:54;;;;;;;19.75;8.70;;;10.00;99.90;;;;;;5033969;28;20029;-84
2023/10/07 00:11:20;;;;;;;19.98;7.88;;;9.80;99.90;;;;;;5016624;28;20484;-83
2023/10/07 00:13:47;;;;;;;24.33;8.20;;;9.80;99.90;;;;;;5015820;28;20032;-84
2023/10/07 00:16:17;;;;;;;22.30;9.18;;;9.90;99.90;;;;;;5032285;28;20097;-84
2023/10/07 00:18:43;;;;;;;18.90;7.63;;;9.90;99.90;;;;;;5015332;28;20034;-84
2023/10/07 00:21:15;;;;;;;20.70;8.65;;;9.80;99.90;;;;;;5015840;28;20583;-84
2023/10/07 00:23:42;;;;;;;28.75;8.55;;;9.80;99.90;;;;;;5030487;28;20089;-84
2023/10/07 00:26:10;;;;;;;22.55;9.18;;;9.70;99.90;;;;;;5032757;28;20026;-84
2023/10/07 00:28:44;;;;;;;23.65;9.20;;;9.60;99.90;;;;;;5031548;28;20447;-84
2023/10/07 00:31:13;;;;;;;25.38;8.55;;;9.50;99.90;;;;;;5034874;28;20435;-84
2023/10/07 00:36:22;;;;;;;23.73;9.00;;;9.50;99.90;;;;;;5048219;28;20494;-84
2023/10/07 00:38:47;;;;;;;22.05;10.27;;;9.60;99.90;;;;;;5031228;28;20372;-84
2023/10/07 00:41:18;;;;;;;30.15;10.43;;;9.70;99.90;;;;;;5031542;28;20025;-84
2023/10/07 00:43:44;;;;;;;28.42;10.55;;;9.80;99.90;;;;;;5015173;28;20021;-84
2023/10/07 00:48:52;;;;;;;23.77;9.50;;;9.90;99.90;;;;;;5032432;28;20129;-84
2023/10/07 00:51:24;;;;;;;23.67;8.88;;;9.70;99.90;;;;;;5014558;28;20056;-84
2023/10/07 00:54:00;;;;;;;25.08;9.05;;;9.40;99.90;;;;;;5031211;28;20047;-84
2023/10/07 00:56:33;;;;;;;20.40;8.10;;;9.20;99.90;;;;;;5030903;28;20469;-83
2023/10/07 00:59:07;;;;;;;25.42;8.82;;;9.00;99.90;;;;;;5031156;28;20037;-84
2023/10/07 01:01:36;;;;;;;23.65;9.35;;;9.10;99.90;;;;;;5031885;28;20484;-84
2023/10/07 01:04:06;;;;;;;25.55;9.10;;;9.40;99.90;;;;;;5014562;28;20025;-84
2023/10/07 01:06:38;;;;;;;29.58;9.90;;;9.60;99.90;;;;;;5047245;28;20053;-83
2023/10/07 01:09:22;;;;;;;;;;;9.80;99.90;;;;;;5032577;28;20026;-83
2023/10/07 01:11:58;;;;;;;24.13;9.02;;;10.00;99.90;;;;;;5031038;28;19916;-83
2023/10/07 01:14:26;;;;;;;26.63;9.70;;;10.10;99.90;;;;;;5014494;28;20907;-83
2023/10/07 01:16:56;;;;;;;27.17;9.02;;;10.10;99.90;;;;;;5028289;28;20383;-83
2023/10/07 01:19:36;;;;;;;20.83;9.13;;;10.20;99.90;;;;;;5030241;28;20123;-83
2023/10/07 01:22:12;;;;;;;29.45;9.68;;;10.20;99.90;;;;;;5021252;28;20480;-83
2023/10/07 01:27:29;;;;;;;21.42;8.20;;;10.10;99.90;;;;;;5028482;28;20037;-83
2023/10/07 01:30:07;;;;;;;20.98;8.38;;;10.10;99.90;;;;;;5030600;28;20032;-83
2023/10/07 01:32:33;;;;;;;28.42;7.65;;;9.80;99.90;;;;;;5010962;28;20040;-82
2023/10/07 01:35:05;;;;;;;16.65;8.55;;;9.50;99.90;;;;;;5030344;28;20124;-84
2023/10/07 01:37:43;;;;;;;19.20;8.85;;;9.20;99.90;;;;;;5030560;28;20378;-84
2023/10/07 01:40:16;;;;;;;20.98;8.52;;;9.00;99.90;;;;;;5014284;28;20039;-83
2023/10/07 01:42:44;;;;;;;21.40;8.68;;;8.80;99.90;;;;;;5047298;28;20781;-84
2023/10/07 01:45:19;;;;;;;24.90;9.38;;;8.60;99.90;;;;;;5014119;28;20030;-84
2023/10/07 01:47:48;;;;;;;19.65;8.77;;;8.50;99.90;;;;;;5012129;28;20025;-83
2023/10/07 01:50:18;;;;;;;22.10;9.43;;;8.30;99.90;;;;;;5030635;28;20072;-83
2023/10/07 01:52:52;;;;;;;28.65;9.70;;;8.20;99.90;;;;;;5029750;28;20036;-84
2023/10/07 01:55:19;;;;;;;23.08;9.82;;;8.10;99.90;;;;;;5026389;28;20501;-83
2023/10/07 01:57:48;;;;;;;24.23;10.07;;;8.10;99.90;;;;;;5030074;28;20492;-84
2023/10/07 02:00:34;;;;;;;20.52;9.88;;;8.40;99.90;;;;;;5026375;28;20061;-83
2023/10/07 02:03:03;;;;;;;24.92;10.45;;;8.60;99.90;;;;;;5030320;28;20472;-84
2023/10/07 02:05:34;;;;;;;27.23;10.30;;;8.60;99.90;;;;;;5030119;28;20038;-83
2023/10/07 02:08:02;;;;;;;23.40;11.15;;;8.40;99.90;;;;;;5030272;28;20025;-84
2023/10/07 02:10:28;;;;;;;22.98;9.68;;;8.40;99.90;;;;;;5030125;28;20026;-83
2023/10/07 02:12:54;;;;;;;24.55;10.25;;;8.30;99.90;;;;;;5013850;28;20583;-83
2023/10/07 02:15:19;;;;;;;27.10;10.05;;;8.20;99.90;;;;;;5014187;28;20137;-84
2023/10/07 02:17:47;;;;;;;22.45;9.60;;;8.10;99.90;;;;;;5013866;28;20396;-84
2023/10/07 02:20:27;;;;;;;21.75;9.70;;;8.10;99.90;;;;;;5007114;28;20037;-83
2023/10/07 02:22:53;;;;;;;22.85;9.63;;;8.00;99.90;;;;;;5044164;28;20391;-83
2023/10/07 02:25:29;;;;;;;24.38;9.75;;;7.90;99.90;;;;;;5030045;28;20081;-83
2023/10/07 02:27:55;;;;;;;24.00;11.20;;;7.90;99.90;;;;;;5046420;28;20480;-84
2023/10/07 02:30:21;;;;;;;25.38;11.90;;;7.80;99.90;;;;;;5032110;28;20025;-84
2023/10/07 02:32:47;;;;;;;25.13;10.30;;;7.70;99.90;;;;;;5033220;28;20496;-84
2023/10/07 02:35:19;;;;;;;28.95;10.25;;;7.50;99.90;;;;;;5017076;28;20140;-83
2023/10/07 02:37:49;;;;;;;27.17;10.32;;;7.40;99.90;;;;;;5016643;28;20041;-84
2023/10/07 02:40:35;;;;;;;22.80;10.32;;;7.30;99.90;;;;;;5032990;28;20030;-84
2023/10/07 02:43:10;;;;;;;20.63;10.68;;;7.20;99.90;;;;;;5032722;28;20080;-83
2023/10/07 02:45:39;;;;;;;29.73;11.38;;;7.10;99.90;;;;;;5033476;28;20032;-83
2023/10/07 02:48:11;;;;;;;27.88;11.35;;;7.00;99.90;;;;;;5016976;28;20072;-83
2023/10/07 02:50:42;;;;;;;30.48;12.07;;;7.00;99.90;;;;;;5017053;28;20056;-83
2023/10/07 02:53:14;;;;;;;30.08;11.55;;;7.00;99.90;;;;;;5033111;28;20033;-83
2023/10/07 02:55:48;;;;;;;23.67;11.25;;;6.90;99.90;;;;;;5032678;28;20141;-83
2023/10/07 03:01:13;;;;;;;25.23;10.95;;;6.80;99.90;;;;;;5032661;28;20029;-83
2023/10/07 03:03:41;;;;;;;26.13;11.15;;;6.90;99.90;;;;;;5009129;28;20041;-83
2023/10/07 03:06:07;;;;;;;28.60;13.55;;;6.80;99.90;;;;;;5016155;28;20115;-82
2023/10/07 03:11:13;;;;;;;30.17;12.68;;;6.80;99.90;;;;;;5049865;28;20439;-82
2023/10/07 03:13:39;;;;;;;30.45;12.38;;;6.90;99.90;;;;;;5033370;28;20049;-83
2023/10/07 03:21:55;;;;;;;35.83;13.60;;;6.70;99.90;;;;;;5044026;28;20034;-83
2023/10/07 03:27:10;;;;;;;31.33;15.50;;;6.80;99.90;;;;;;5043617;28;20040;-83
2023/10/07 03:30:15;;;;;;;43.13;16.63;;;6.80;99.90;;;;;;5033000;28;20056;-83
2023/10/07 03:32:57;;;;;;;31.73;13.82;;;6.70;99.90;;;;;;5048558;28;20030;-85
2023/10/07 03:35:35;;;;;;;29.13;12.57;;;6.80;99.90;;;;;;5044637;28;20037;-85
2023/10/07 03:38:10;;;;;;;37.95;12.93;;;6.70;99.90;;;;;;5031810;28;20056;-85
2023/10/07 03:40:38;;;;;;;35.17;14.10;;;6.60;99.90;;;;;;5016343;28;20029;-83
2023/10/07 03:43:06;;;;;;;35.25;12.88;;;6.50;99.90;;;;;;5032194;28;20041;-82
2023/10/07 03:45:32;;;;;;;33.40;14.27;;;6.50;99.90;;;;;;5042857;28;20025;-85
2023/10/07 03:47:58;;;;;;;33.70;13.38;;;6.50;99.90;;;;;;5032668;28;20082;-85
2023/10/07 03:50:34;;;;;;;36.63;13.32;;;6.50;99.90;;;;;;5016001;28;20049;-85
2023/10/07 03:53:01;;;;;;;32.80;13.20;;;6.40;99.90;;;;;;5032232;28;20087;-85
2023/10/07 03:55:29;;;;;;;25.35;11.43;;;6.40;99.90;;;;;;5032355;28;20032;-85
2023/10/07 03:57:55;;;;;;;28.42;11.52;;;6.30;99.90;;;;;;5032199;28;20465;-85
2023/10/07 04:00:27;;;;;;;26.73;11.52;;;6.30;99.90;;;;;;5032365;28;20114;-85
2023/10/07 04:02:52;;;;;;;;;;;6.20;99.90;;;;;;5032172;28;20083;-85
2023/10/07 04:05:31;;;;;;;30.40;11.05;;;6.10;99.90;;;;;;5041740;28;19917;-85
2023/10/07 04:07:57;;;;;;;32.55;12.60;;;6.10;99.90;;;;;;5041700;28;20314;-84
2023/10/07 04:10:31;;;;;;;30.60;12.50;;;6.00;99.90;;;;;;5046674;28;20372;-84
2023/10/07 04:12:57;;;;;;;33.53;12.95;;;6.00;99.90;;;;;;5023724;28;20140;-85
2023/10/07 04:15:29;;;;;;;34.33;12.30;;;6.10;99.90;;;;;;5028862;28;20036;-85
2023/10/07 04:17:54;;;;;;;26.77;11.75;;;6.00;99.90;;;;;;5046599;28;20033;-85
2023/10/07 04:20:28;;;;;;;38.35;13.10;;;6.00;99.90;;;;;;5027868;28;20597;-85
2023/10/07 04:23:02;;;;;;;34.55;12.73;;;6.00;99.90;;;;;;5027229;28;20040;-85
2023/10/07 04:25:30;;;;;;;25.25;10.95;;;5.90;99.90;;;;;;5021682;28;20667;-85
2023/10/07 04:27:57;;;;;;;27.42;13.18;;;5.80;99.90;;;;;;5043088;28;20091;-85
2023/10/07 04:30:39;;;;;;;28.88;12.75;;;5.80;99.90;;;;;;5032152;28;20143;-85
2023/10/07 04:33:10;;;;;;;34.00;14.80;;;5.80;99.90;;;;;;5042687;28;20033;-85
2023/10/07 04:35:37;;;;;;;37.70;12.73;;;5.80;99.90;;;;;;5029459;28;20056;-85
2023/10/07 04:38:30;;;;;;;34.85;13.85;;;5.70;99.90;;;;;;5033443;28;20044;-85
2023/10/07 04:46:22;;;;;;;35.60;16.42;;;5.50;99.90;;;;;;5050712;28;20376;-85
2023/10/07 04:48:54;;;;;;;41.58;15.80;;;5.50;99.90;;;;;;5042796;28;20029;-85
2023/10/07 04:51:35;;;;;;;41.13;17.55;;;5.60;99.90;;;;;;5024950;28;20468;-85
2023/10/07 04:54:00;;;;;;;41.83;16.77;;;5.70;99.90;;;;;;5045307;28;20040;-84
2023/10/07 04:56:27;;;;;;;38.03;17.60;;;5.90;99.90;;;;;;5030928;28;20025;-85
2023/10/07 04:58:53;;;;;;;33.88;15.55;;;5.90;99.90;;;;;;5040029;28;20040;-85
2023/10/07 05:01:33;;;;;;;40.28;16.75;;;5.90;99.90;;;;;;5029069;28;20075;-85
2023/10/07 05:04:09;;;;;;;43.33;17.40;;;5.90;99.90;;;;;;5032150;28;20785;-85
2023/10/07 05:06:37;;;;;;;38.30;16.08;;;6.00;99.90;;;;;;5025734;28;20124;-84
2023/10/07 05:09:21;;;;;;;41.17;15.18;;;6.10;99.90;;;;;;5043174;28;20091;-85
2023/10/07 05:11:48;;;;;;;34.10;14.60;;;6.20;99.90;;;;;;5042883;28;20051;-86
2023/10/07 05:14:18;;;;;;;40.10;15.70;;;6.10;99.90;;;;;;5029582;28;20025;-85
2023/10/07 05:16:46;;;;;;;39.55;18.80;;;6.20;99.90;;;;;;5030769;28;20491;-85
2023/10/07 05:19:27;;;;;;;41.90;17.67;;;6.80;99.90;;;;;;5029021;28;20033;-85
2023/10/07 05:22:06;;;;;;;50.60;19.33;;;7.00;99.90;;;;;;5043394;28;20100;-85
2023/10/07 05:24:35;;;;;;;42.05;18.40;;;7.10;99.90;;;;;;5024852;28;20061;-83
2023/10/07 05:27:04;;;;;;;44.30;18.38;;;7.30;99.90;;;;;;5028066;28;20017;-82
2023/10/07 05:29:30;;;;;;;50.33;20.90;;;7.40;99.90;;;;;;5037638;28;20086;-83
2023/10/07 05:31:57;;;;;;;47.40;21.33;;;7.30;99.90;;;;;;5028575;28;20034;-83
2023/10/07 05:34:28;;;;;;;53.13;21.58;;;7.40;99.90;;;;;;5034804;28;20705;-83
2023/10/07 05:36:58;;;;;;;;;;;7.40;99.90;;;;;;5011254;28;20658;-84
2023/10/07 05:39:24;;;;;;;50.85;20.55;;;7.60;99.90;;;;;;5041898;28;19909;-83
2023/10/07 05:41:50;;;;;;;57.38;23.58;;;7.80;99.90;;;;;;5018876;28;20029;-83
2023/10/07 05:44:17;;;;;;;73.88;29.38;;;8.00;99.90;;;;;;5024413;28;20025;-83
2023/10/07 05:46:43;;;;;;;71.72;30.45;;;8.00;99.90;;;;;;5024304;28;20053;-83
2023/10/07 05:49:10;;;;;;;47.92;21.88;;;8.10;99.90;;;;;;5012753;28;20106;-83
2023/10/07 05:51:37;;;;;;;69.82;31.63;;;8.20;99.90;;;;;;5013622;28;20375;-83
2023/10/07 05:54:05;;;;;;;58.65;25.10;;;8.30;99.90;;;;;;5013552;28;20423;-84
2023/10/07 05:56:30;;;;;;;47.85;22.65;;;8.30;99.90;;;;;;5017002;28;20029;-84
2023/10/07 05:58:57;;;;;;;36.88;18.42;;;8.50;99.90;;;;;;5011342;28;20032;-83
2023/10/07 06:01:24;;;;;;;43.03;18.23;;;8.70;99.90;;;;;;5026690;28;20033;-84
2023/10/07 06:03:51;;;;;;;43.53;17.30;;;8.80;99.90;;;;;;5030083;28;20045;-84
2023/10/07 06:06:20;;;;;;;49.33;19.20;;;9.00;99.90;;;;;;5044346;28;20034;-84
2023/10/07 06:08:47;;;;;;;34.72;16.88;;;9.20;99.90;;;;;;5013396;28;20037;-83
2023/10/07 06:11:12;;;;;;;52.33;17.52;;;9.30;99.90;;;;;;5031411;28;20025;-84
2023/10/07 06:13:40;;;;;;;32.83;15.63;;;9.50;99.90;;;;;;5026542;28;20381;-84
2023/10/07 06:16:07;;;;;;;40.38;16.00;;;9.60;99.90;;;;;;5029751;28;20033;-83
2023/10/07 06:18:34;;;;;;;26.45;13.10;;;9.60;99.90;;;;;;5033220;28;20053;-84
2023/10/07 06:21:19;;;;;;;26.02;13.38;;;9.70;99.90;;;;;;5031587;28;20033;-83
2023/10/07 06:23:49;;;;;;;29.60;14.27;;;9.80;99.90;;;;;;5016583;28;20037;-83
2023/10/07 06:26:15;;;;;;;40.17;13.57;;;9.90;99.90;;;;;;5016369;28;20502;-83
2023/10/07 06:28:46;;;;;;;30.63;13.35;;;10.00;99.90;;;;;;5016454;28;20366;-83
2023/10/07 06:31:27;;;;;;;28.67;13.60;;;10.10;99.90;;;;;;5031442;28;20374;-84
2023/10/07 06:34:00;;;;;;;26.08;12.25;;;10.20;99.90;;;;;;5044001;28;20280;-84
2023/10/07 06:36:30;;;;;;;32.05;14.27;;;10.20;99.90;;;;;;5011121;28;20125;-84
2023/10/07 06:39:01;;;;;;;25.70;12.40;;;10.30;99.90;;;;;;5026432;28;20037;-84
2023/10/07 06:41:29;;;;;;;32.63;14.17;;;10.20;99.90;;;;;;5019683;28;20046;-83
2023/10/07 06:43:59;;;;;;;36.33;12.85;;;10.30;99.90;;;;;;5024584;28;20461;-83
2023/10/07 06:46:41;;;;;;;28.20;12.93;;;10.20;99.90;;;;;;5042652;28;20022;-84
2023/10/07 06:49:16;;;;;;;27.20;12.63;;;10.30;99.90;;;;;;5044995;28;20045;-84
2023/10/07 06:51:44;;;;;;;33.10;12.20;;;10.40;99.90;;;;;;5031034;28;20472;-84
2023/10/07 06:54:10;;;;;;;26.08;11.93;;;10.40;99.90;;;;;;5035929;28;20029;-83
2023/10/07 06:56:36;;;;;;;29.98;13.57;;;10.40;99.90;;;;;;5027311;28;20035;-84
2023/10/07 06:59:03;;;;;;;33.10;13.02;;;10.50;99.90;;;;;;5023695;28;20030;-84
2023/10/07 07:04:14;;;;;;;27.63;12.65;;;10.60;99.90;;;;;;5041416;28;20036;-84
2023/10/07 07:06:44;;;;;;;26.27;11.52;;;10.70;99.90;;;;;;5029888;28;20052;-83
2023/10/07 07:12:03;;;;;;;27.70;11.38;;;10.70;99.90;;;;;;5036858;28;20113;-84
2023/10/07 07:14:33;;;;;;;29.35;11.15;;;10.70;99.90;;;;;;5023175;28;20424;-83
2023/10/07 07:20:15;;;;;;;23.20;9.98;;;10.80;99.90;;;;;;5031874;28;20025;-84
2023/10/07 07:22:33;;;;;;;32.05;12.38;;;10.80;99.90;;;;;;5030928;28;20064;-84
2023/10/07 07:25:05;;;;;;;32.35;10.35;;;10.90;99.90;;;;;;5013338;28;20021;-84
2023/10/07 07:27:34;;;;;;;;;;;10.90;99.90;;;;;;5040890;28;20025;-83
2023/10/07 07:30:03;;;;;;;20.10;9.60;;;10.90;99.90;;;;;;5028799;28;19956;-84
2023/10/07 07:32:35;;;;;;;29.00;10.68;;;10.90;99.90;;;;;;5027142;28;20488;-84
2023/10/07 07:35:04;;;;;;;;;;;10.90;99.90;;;;;;5015927;28;20534;-84
2023/10/07 07:37:32;;;;;;;27.67;10.70;;;11.00;99.90;;;;;;5036622;28;19998;-84
2023/10/07 07:40:08;;;;;;;31.65;10.98;;;11.00;99.90;;;;;;5028171;28;20059;-85
2023/10/07 07:42:34;;;;;;;34.03;11.65;;;11.00;99.90;;;;;;5013354;28;20499;-84
2023/10/07 07:45:15;;;;;;;25.83;10.32;;;11.10;99.90;;;;;;5017746;28;20021;-84
2023/10/07 07:47:41;;;;;;;19.50;11.03;;;11.10;99.90;;;;;;5028004;28;20080;-84
2023/10/07 07:50:15;;;;;;;30.80;10.63;;;11.20;99.90;;;;;;5022906;28;20061;-84
2023/10/07 07:52:41;;;;;;;25.58;10.88;;;11.20;99.90;;;;;;5021906;28;20087;-84
2023/10/07 07:55:07;;;;;;;26.77;11.35;;;11.10;99.90;;;;;;5043238;28;20419;-83
2023/10/07 07:57:34;;;;;;;21.15;10.57;;;11.20;99.90;;;;;;5010706;28;20033;-85
2023/10/07 08:00:00;;;;;;;30.13;11.43;;;11.10;99.90;;;;;;5029091;28;20116;-84
2023/10/07 08:02:26;;;;;;;21.85;10.55;;;11.10;99.90;;;;;;5028987;28;20595;-84
2023/10/07 08:05:02;;;;;;;27.00;10.93;;;11.20;99.90;;;;;;5010751;28;20530;-84
2023/10/07 08:07:29;;;;;;;25.90;10.48;;;11.20;99.90;;;;;;5037066;28;20030;-85
2023/10/07 08:09:58;;;;;;;30.25;13.32;;;11.30;99.90;;;;;;5030219;28;20060;-84
2023/10/07 08:12:28;;;;;;;29.35;10.50;;;11.30;99.90;;;;;;5030384;28;20579;-84
2023/10/07 08:14:58;;;;;;;26.15;9.50;;;11.30;99.90;;;;;;5031274;28;20033;-83
2023/10/07 08:17:27;;;;;;;20.83;9.57;;;11.30;99.90;;;;;;5030363;28;20590;-84
2023/10/07 08:19:54;;;;;;;21.88;10.20;;;11.40;99.90;;;;;;5042730;28;20513;-84
2023/10/07 08:22:20;;;;;;;20.13;9.00;;;11.40;99.90;;;;;;5048024;28;20041;-84
2023/10/07 08:24:49;;;;;;;25.83;10.35;;;11.40;99.90;;;;;;5015049;28;20112;-84
2023/10/07 08:30:06;;;;;;;22.38;9.52;;;11.50;99.90;;;;;;5039670;28;20029;-84
2023/10/07 08:32:37;;;;;;;30.80;11.05;;;11.50;99.90;;;;;;5014595;28;20029;-83
2023/10/07 08:35:26;;;;;;;29.13;11.20;;;11.40;99.90;;;;;;5055197;28;20051;-83
2023/10/07 08:37:51;;;;;;;25.30;9.50;;;11.40;99.90;;;;;;5027092;28;20103;-84
2023/10/07 08:40:28;;;;;;;22.88;9.65;;;11.40;99.90;;;;;;5015050;28;20477;-84
2023/10/07 08:43:04;;;;;;;21.20;9.60;;;11.40;99.90;;;;;;5031020;28;20041;-84
2023/10/07 08:45:31;;;;;;;27.33;9.55;;;11.50;99.90;;;;;;5014611;28;20028;-84
2023/10/07 08:48:08;;;;;;;25.77;9.65;;;11.50;99.90;;;;;;5047963;28;20029;-84
2023/10/07 08:50:49;;;;;;;27.08;10.60;;;11.50;99.90;;;;;;5031226;28;20018;-84
2023/10/07 08:53:15;;;;;;;26.95;9.48;;;11.50;99.90;;;;;;5032843;28;20079;-84
2023/10/07 08:55:43;;;;;;;25.30;9.85;;;11.50;99.90;;;;;;5047394;28;20029;-84
2023/10/07 08:58:11;;;;;;;18.23;9.00;;;11.50;99.90;;;;;;5030873;28;20041;-85
2023/10/07 09:00:41;;;;;;;22.35;9.40;;;11.50;99.90;;;;;;5030493;28;20033;-85
2023/10/07 09:03:14;;;;;;;22.48;8.70;;;11.50;99.90;;;;;;5017599;28;20041;-85
2023/10/07 09:05:44;;;;;;;19.63;9.32;;;11.50;99.90;;;;;;5006219;28;20028;-85
2023/10/07 09:08:11;;;;;;;18.63;8.95;;;11.60;99.90;;;;;;5024371;28;20045;-84
2023/10/07 09:10:41;;;;;;;21.38;8.82;;;11.70;99.90;;;;;;5012219;28;20119;-85
2023/10/07 09:13:12;;;;;;;21.73;9.40;;;11.70;99.90;;;;;;5023801;28;20041;-84
2023/10/07 09:15:42;;;;;;;;;;;11.80;99.90;;;;;;5012337;28;20550;-85
2023/10/07 09:18:10;;;;;;;24.67;7.43;;;12.00;99.90;;;;;;5024222;28;20004;-84
2023/10/07 09:20:45;;;;;;;19.05;7.95;;;12.10;99.90;;;;;;5030805;28;20029;-85
2023/10/07 09:23:22;;;;;;;19.80;7.53;;;12.20;99.90;;;;;;5040096;28;20041;-84
2023/10/07 09:25:52;;;;;;;15.90;7.28;;;12.40;99.90;;;;;;5019324;28;20060;-84
2023/10/07 09:28:31;;;;;;;16.88;8.02;;;12.50;99.90;;;;;;5020882;28;20080;-84
2023/10/07 09:31:05;;;;;;;27.60;7.88;;;12.80;99.90;;;;;;5012837;28;20754;-84
2023/10/07 09:33:38;;;;;;;22.98;8.65;;;13.00;99.90;;;;;;5024701;28;20030;-84
2023/10/07 09:41:39;;;;;;;19.85;8.35;;;13.50;99.90;;;;;;5012564;28;20029;-84
2023/10/07 09:44:23;;;;;;;18.25;9.00;;;13.60;99.90;;;;;;5024218;28;20076;-84
2023/10/07 09:46:52;;;;;;;21.85;8.82;;;13.60;99.90;;;;;;5023987;28;20065;-85
2023/10/07 09:49:20;;;;;;;23.98;7.72;;;13.60;99.90;;;;;;5029513;28;20029;-85
2023/10/07 09:51:48;;;;;;;15.27;6.85;;;13.80;99.90;;;;;;5046132;28;20073;-85
2023/10/07 09:54:26;;;;;;;21.38;7.70;;;14.00;99.90;;;;;;5032088;28;20057;-85
2023/10/07 09:57:30;;;;;;;17.27;7.07;;;14.40;99.90;;;;;;5028941;28;20101;-85
2023/10/07 10:03:30;;;;;;;18.35;7.82;;;15.00;99.90;;;;;;5043898;28;20384;-84
2023/10/07 10:06:16;;;;;;;17.40;6.93;;;15.10;99.90;;;;;;5020227;28;20041;-84
2023/10/07 10:08:58;;;;;;;18.10;7.25;;;15.20;99.90;;;;;;5028747;28;20475;-85
2023/10/07 10:16:47;;;;;;;18.25;8.07;;;15.50;99.90;;;;;;5042124;28;20053;-85
2023/10/07 10:19:47;;;;;;;19.60;6.35;;;15.60;99.90;;;;;;5014905;28;20017;-85
2023/10/07 10:22:22;;;;;;;16.58;7.38;;;15.80;99.90;;;;;;5026872;28;20107;-84
2023/10/07 10:24:54;;;;;;;15.20;5.97;;;15.70;99.90;;;;;;5009678;28;20041;-85
2023/10/07 10:27:20;;;;;;;17.67;7.10;;;15.60;99.90;;;;;;5028825;28;20095;-85
2023/10/07 10:30:03;;;;;;;18.75;6.88;;;16.00;99.90;;;;;;5017111;28;20045;-84
2023/10/07 10:32:30;;;;;;;17.45;7.28;;;16.20;99.90;;;;;;5028501;28;20049;-84
2023/10/07 10:35:01;;;;;;;14.68;6.90;;;16.40;99.90;;;;;;5029965;28;20037;-83
2023/10/07 10:37:30;;;;;;;11.38;5.97;;;16.60;99.90;;;;;;5031332;28;20029;-85
2023/10/07 10:39:57;;;;;;;15.38;6.13;;;16.60;99.90;;;;;;5017066;28;20419;-85
2023/10/07 10:42:23;;;;;;;13.93;5.88;;;16.50;99.90;;;;;;5033047;28;20056;-84
2023/10/07 10:44:51;;;;;;;13.68;6.78;;;16.50;99.90;;;;;;5033149;28;20045;-84
2023/10/07 10:47:18;;;;;;;13.45;6.18;;;16.60;99.90;;;;;;5033349;28;20405;-84
2023/10/07 10:49:44;;;;;;;14.10;7.22;;;16.70;99.90;;;;;;5032469;28;20044;-84
2023/10/07 10:52:12;;;;;;;16.40;7.18;;;16.80;99.90;;;;;;5033732;28;20021;-85
2023/10/07 10:54:40;;;;;;;23.17;7.05;;;16.70;99.90;;;;;;5050048;28;20384;-84
2023/10/07 10:57:09;;;;;;;13.10;6.05;;;16.60;99.90;;;;;;5016728;28;20026;-84
2023/10/07 10:59:43;;;;;;;15.15;6.85;;;16.60;99.90;;;;;;5033576;28;20093;-84
2023/10/07 11:02:17;;;;;;;14.23;6.45;;;16.50;99.90;;;;;;5035128;28;20033;-85
2023/10/07 11:04:47;;;;;;;15.77;6.82;;;16.40;99.90;;;;;;5017015;28;20078;-84
2023/10/07 11:07:14;;;;;;;15.75;6.82;;;16.10;99.90;;;;;;5017032;28;20036;-85
2023/10/07 11:09:47;;;;;;;18.50;7.45;;;15.80;99.90;;;;;;5033766;28;20025;-84
2023/10/07 11:12:16;;;;;;;14.15;6.43;;;15.60;99.90;;;;;;5016733;28;20041;-85
2023/10/07 11:14:43;;;;;;;15.95;7.75;;;15.50;99.90;;;;;;5049838;28;20029;-85
2023/10/07 11:17:10;;;;;;;17.98;7.53;;;15.40;99.90;;;;;;5017372;28;20036;-84
2023/10/07 11:19:47;;;;;;;23.75;8.30;;;15.10;99.90;;;;;;5017075;28;20114;-85
2023/10/07 11:22:19;;;;;;;17.38;7.03;;;15.30;99.90;;;;;;5049883;28;20047;-84
2023/10/07 11:24:52;;;;;;;18.67;7.43;;;15.50;99.90;;;;;;5033217;28;20028;-84
2023/10/07 11:27:19;;;;;;;15.82;7.03;;;15.50;99.90;;;;;;5016798;28;20030;-83
2023/10/07 11:29:44;;;;;;;16.27;7.78;;;15.50;99.90;;;;;;5033335;28;20053;-84
2023/10/07 11:32:12;;;;;;;18.40;7.97;;;15.60;99.90;;;;;;5016392;28;20079;-84
2023/10/07 11:34:43;;;;;;;13.65;7.00;;;15.90;99.90;;;;;;5049350;28;20476;-84
2023/10/07 11:37:14;;;;;;;14.35;7.18;;;16.80;99.90;;;;;;5032820;28;20169;-84
2023/10/07 11:39:45;;;;;;;14.63;6.78;;;17.80;99.90;;;;;;5032875;28;20037;-84
2023/10/07 11:42:12;;;;;;;16.95;6.65;;;17.90;99.90;;;;;;5016050;28;20584;-85
2023/10/07 11:44:39;;;;;;;14.02;6.93;;;17.80;99.90;;;;;;5033269;28;20468;-85
2023/10/07 11:47:07;;;;;;;16.48;6.50;;;17.60;99.90;;;;;;5016037;28;20116;-84
2023/10/07 11:49:34;;;;;;;13.52;6.72;;;17.00;99.90;;;;;;5015151;28;20033;-84
2023/10/07 11:52:03;;;;;;;15.23;7.57;;;16.90;99.90;;;;;;5047948;28;20033;-85
2023/10/07 11:54:31;;;;;;;13.43;6.88;;;16.90;99.90;;;;;;5048305;28;20496;-84
2023/10/07 11:56:57;;;;;;;14.95;7.43;;;16.50;99.90;;;;;;5024045;28;20033;-84
2023/10/07 11:59:23;;;;;;;17.52;7.10;;;16.40;99.90;;;;;;5048988;28;20391;-84
2023/10/07 12:01:52;;;;;;;14.48;6.57;;;16.20;99.90;;;;;;5048052;28;20033;-85
2023/10/07 12:04:20;;;;;;;14.80;6.60;;;16.30;99.90;;;;;;5032881;28;20034;-84
2023/10/07 12:06:47;;;;;;;13.73;6.10;;;16.40;99.90;;;;;;5014151;28;20030;-84
2023/10/07 12:09:14;;;;;;;20.08;6.25;;;16.30;99.90;;;;;;5025975;28;20034;-84
2023/10/07 12:11:42;;;;;;;21.60;6.63;;;16.30;99.90;;;;;;5043487;28;20029;-84
2023/10/07 12:14:08;;;;;;;14.32;6.97;;;16.40;99.90;;;;;;5027187;28;20549;-84
2023/10/07 12:16:34;;;;;;;19.05;8.07;;;16.40;99.90;;;;;;5031763;28;20429;-85
2023/10/07 12:19:00;;;;;;;16.38;6.93;;;16.60;99.90;;;;;;5022664;28;20108;-84
2023/10/07 12:21:27;;;;;;;19.65;6.35;;;16.60;99.90;;;;;;5011963;28;20025;-85
2023/10/07 12:23:54;;;;;;;14.80;6.65;;;16.50;99.90;;;;;;5029654;28;20037;-85
2023/10/07 12:26:22;;;;;;;17.33;6.22;;;16.40;99.90;;;;;;5024649;28;20038;-85
2023/10/07 12:28:52;;;;;;;16.70;6.50;;;16.50;99.90;;;;;;5026107;28;20396;-85
2023/10/07 12:31:20;;;;;;;14.27;6.60;;;16.50;99.90;;;;;;5029586;28;20067;-85
2023/10/07 12:33:46;;;;;;;11.77;5.78;;;16.60;99.90;;;;;;5038822;28;20105;-84
2023/10/07 12:36:15;;;;;;;14.52;6.72;;;16.60;99.90;;;;;;5035141;28;20487;-84
2023/10/07 12:38:42;;;;;;;14.45;6.47;;;16.60;99.90;;;;;;5036585;28;20046;-84
2023/10/07 12:41:08;;;;;;;25.17;7.18;;;16.30;99.90;;;;;;5025212;28;20120;-85
2023/10/07 12:43:39;;;;;;;16.80;7.20;;;16.20;99.90;;;;;;5051125;28;20037;-84
2023/10/07 12:46:09;;;;;;;;;;;16.30;99.90;;;;;;5036428;28;20073;-85
2023/10/07 12:48:40;;;;;;;18.35;6.45;;;16.60;99.90;;;;;;5029941;28;19909;-85
2023/10/07 12:51:06;;;;;;;14.82;5.40;;;16.60;99.90;;;;;;5043874;28;20033;-85
2023/10/07 12:53:35;;;;;;;14.48;6.28;;;16.50;99.90;;;;;;5022173;28;20030;-84
2023/10/07 12:56:19;;;;;;;11.77;6.28;;;16.40;99.90;;;;;;5012519;28;20028;-84
2023/10/07 12:58:48;;;;;;;22.08;6.53;;;16.50;99.90;;;;;;5014364;28;20057;-85
2023/10/07 13:01:15;;;;;;;11.57;5.03;;;16.70;99.90;;;;;;5012466;28;20032;-85
2023/10/07 13:03:43;;;;;;;16.05;5.80;;;16.60;99.90;;;;;;5029020;28;20040;-85
2023/10/07 13:06:10;;;;;;;13.75;5.30;;;16.60;99.90;;;;;;5034253;28;20029;-84
2023/10/07 13:08:40;;;;;;;13.88;5.45;;;16.60;99.90;;;;;;5030343;28;20040;-85
2023/10/07 13:11:20;;;;;;;17.20;5.70;;;16.50;99.90;;;;;;5018485;28;20087;-85
2023/10/07 13:13:46;;;;;;;19.45;5.90;;;16.20;99.90;;;;;;5013461;28;20036;-85
2023/10/07 13:16:13;;;;;;;11.73;5.70;;;16.20;99.90;;;;;;5017332;28;20041;-85
2023/10/07 13:18:44;;;;;;;8.85;4.63;;;16.20;99.90;;;;;;5041161;28;20100;-85
2023/10/07 13:21:19;;;;;;;13.95;5.25;;;16.20;99.90;;;;;;5037461;28;20047;-85
2023/10/07 13:23:46;;;;;;;20.27;5.68;;;16.30;99.90;;;;;;5011653;28;20042;-85
2023/10/07 13:26:12;;;;;;;12.70;5.88;;;16.20;99.90;;;;;;5034860;28;20384;-85
2023/10/07 13:28:38;;;;;;;15.25;5.78;;;16.10;99.90;;;;;;5038041;28;20075;-84
2023/10/07 13:31:09;;;;;;;13.68;5.35;;;16.00;99.90;;;;;;5028112;28;20540;-85
2023/10/07 13:33:37;;;;;;;14.30;6.18;;;16.20;99.90;;;;;;5017725;28;20121;-84
2023/10/07 13:36:04;;;;;;;16.60;5.55;;;16.20;99.90;;;;;;5026954;28;20029;-84
2023/10/07 13:38:30;;;;;;;21.13;5.80;;;16.20;99.90;;;;;;5028158;28;20055;-85
2023/10/07 13:40:56;;;;;;;17.80;6.18;;;16.30;99.90;;;;;;5033679;28;20030;-85
2023/10/07 13:43:22;;;;;;;12.90;6.35;;;16.50;99.90;;;;;;5023690;28;20862;-84
2023/10/07 13:45:48;;;;;;;16.08;5.60;;;16.70;99.90;;;;;;5020425;28;20056;-84
2023/10/07 13:48:14;;;;;;;12.90;5.78;;;16.90;99.90;;;;;;5011410;28;20788;-84